Time;durP1;ratioP1;P1;durP2;ratioP2;P2;SDS_P1;SDS_P2;PMS_P1;PMS_P2;Temp;Humidity;BMP_temperature;BMP_pressure;BME280_temperature;BME280_humidity;BME280_pressure;Samples;Min_cycle;Max_cycle;Signal;HPM_P1;HPM_P2
2023/09/19 00:01:08;;;;;;;4.17;2.07;;;18.80;99.90;;;;;;5032681;28;20277;-69
2023/09/19 00:03:37;;;;;;;3.83;2.57;;;18.80;99.90;;;;;;5034764;28;20255;-69
2023/09/19 00:06:04;;;;;;;4.37;2.60;;;18.90;99.90;;;;;;5037088;28;20208;-69
2023/09/19 00:08:30;;;;;;;2.50;2.13;;;18.80;99.90;;;;;;5029211;28;20254;-69
2023/09/19 00:10:56;;;;;;;5.70;2.57;;;18.90;99.90;;;;;;5036778;28;20223;-69
2023/09/19 00:13:22;;;;;;;5.10;2.43;;;18.90;99.90;;;;;;5028218;28;20777;-69
2023/09/19 00:15:48;;;;;;;3.07;2.37;;;18.90;99.90;;;;;;5017088;28;20703;-68
2023/09/19 00:18:15;;;;;;;2.87;1.83;;;18.90;99.90;;;;;;5039405;28;20219;-68
2023/09/19 00:20:41;;;;;;;4.33;2.00;;;18.90;99.90;;;;;;5033359;28;20285;-66
2023/09/19 00:23:10;;;;;;;3.37;2.17;;;18.90;99.90;;;;;;5039543;28;20516;-66
2023/09/19 00:25:37;;;;;;;4.87;2.10;;;18.80;99.90;;;;;;5037501;28;20201;-62
2023/09/19 00:28:04;;;;;;;2.97;2.33;;;18.80;99.90;;;;;;5042944;28;20313;-63
2023/09/19 00:30:29;;;;;;;3.50;1.87;;;18.80;99.90;;;;;;5040342;28;20194;-67
2023/09/19 00:32:55;;;;;;;3.33;2.10;;;18.70;99.90;;;;;;5023064;28;20986;-67
2023/09/19 00:35:24;;;;;;;2.37;1.83;;;18.70;99.90;;;;;;5039054;28;20224;-67
2023/09/19 00:37:50;;;;;;;3.43;2.20;;;18.70;99.90;;;;;;5022367;28;20686;-66
2023/09/19 00:40:16;;;;;;;2.30;2.07;;;18.70;99.90;;;;;;5037401;28;20205;-66
2023/09/19 00:42:42;;;;;;;5.07;2.53;;;18.80;99.90;;;;;;5035621;28;20200;-66
2023/09/19 00:45:13;;;;;;;3.23;1.73;;;18.70;99.90;;;;;;5037636;28;20290;-66
2023/09/19 00:47:49;;;;;;;2.90;1.83;;;18.70;99.90;;;;;;5022047;28;20572;-66
2023/09/19 00:50:21;;;;;;;2.27;1.77;;;18.60;99.90;;;;;;5041312;28;20200;-64
2023/09/19 00:52:49;;;;;;;3.37;2.20;;;18.60;99.90;;;;;;5038566;28;20243;-65
2023/09/19 00:55:16;;;;;;;2.40;2.20;;;18.50;99.90;;;;;;5036485;28;20206;-64
2023/09/19 00:57:42;;;;;;;2.47;1.80;;;18.50;99.90;;;;;;5038841;28;20221;-63
2023/09/19 01:00:12;;;;;;;4.33;2.00;;;18.50;99.90;;;;;;5038744;28;20195;-64
2023/09/19 01:02:39;;;;;;;7.30;2.40;;;18.50;99.90;;;;;;5039288;28;20709;-64
2023/09/19 01:05:05;;;;;;;2.87;1.67;;;18.50;99.90;;;;;;5035056;28;20207;-65
2023/09/19 01:07:35;;;;;;;2.43;2.20;;;18.40;99.90;;;;;;5044597;28;20198;-64
2023/09/19 01:10:05;;;;;;;4.60;1.90;;;18.30;99.90;;;;;;5038313;28;20202;-65
2023/09/19 01:12:40;;;;;;;3.20;2.40;;;18.40;99.90;;;;;;5034557;28;20199;-64
2023/09/19 01:15:41;;;;;;;3.83;2.20;;;18.40;99.90;;;;;;5019200;28;20254;-67
2023/09/19 01:18:21;;;;;;;4.63;2.60;;;18.40;99.90;;;;;;5030483;28;20214;-66
2023/09/19 01:21:12;;;;;;;4.63;2.53;;;18.40;99.90;;;;;;5035949;28;20285;-65
2023/09/19 01:24:09;;;;;;;7.80;2.30;;;18.50;99.90;;;;;;5034895;28;20199;-66
2023/09/19 01:26:47;;;;;;;4.03;2.30;;;18.30;99.90;;;;;;5037479;28;20260;-66
2023/09/19 01:29:29;;;;;;;7.43;3.03;;;18.40;99.90;;;;;;5009969;28;20236;-66
2023/09/19 01:32:01;;;;;;;3.30;2.20;;;18.40;99.90;;;;;;5040493;28;20309;-62
2023/09/19 01:34:26;;;;;;;4.73;2.53;;;18.30;99.90;;;;;;5015092;28;20234;-67
2023/09/19 01:36:52;;;;;;;3.63;2.50;;;18.40;99.90;;;;;;5035951;28;20207;-67
2023/09/19 01:39:19;;;;;;;3.87;2.33;;;18.40;99.90;;;;;;5035460;28;20200;-67
2023/09/19 01:41:49;;;;;;;3.67;1.70;;;18.40;99.90;;;;;;5044803;28;20273;-67
2023/09/19 01:44:24;;;;;;;2.87;2.30;;;18.30;99.90;;;;;;5038148;28;20241;-66
2023/09/19 01:46:49;;;;;;;2.00;1.90;;;18.30;99.90;;;;;;5037607;28;20197;-61
2023/09/19 01:49:25;;;;;;;3.77;2.10;;;18.30;99.90;;;;;;5039491;28;20237;-61
2023/09/19 01:52:13;;;;;;;3.30;2.20;;;18.30;99.90;;;;;;5034922;28;20720;-61
2023/09/19 01:54:51;;;;;;;3.20;2.20;;;18.30;99.90;;;;;;5036976;28;20218;-63
2023/09/19 01:57:29;;;;;;;3.33;1.93;;;18.30;99.90;;;;;;5035843;28;20191;-63
2023/09/19 02:00:11;;;;;;;5.33;2.23;;;18.30;99.90;;;;;;5035067;28;20186;-63
2023/09/19 02:02:39;;;;;;;5.87;2.20;;;18.30;99.90;;;;;;5041771;28;20207;-63
2023/09/19 02:05:06;;;;;;;2.53;2.33;;;18.20;99.90;;;;;;5036668;28;20212;-63
2023/09/19 02:07:32;;;;;;;3.37;2.37;;;18.20;99.90;;;;;;5036226;28;20276;-63
2023/09/19 02:10:00;;;;;;;4.00;1.90;;;18.20;99.90;;;;;;5040450;28;20804;-64
2023/09/19 02:12:26;;;;;;;5.60;2.37;;;18.20;99.90;;;;;;5040430;28;20206;-63
2023/09/19 02:14:51;;;;;;;8.17;2.00;;;18.20;99.90;;;;;;5042946;28;20216;-63
2023/09/19 02:17:17;;;;;;;4.27;1.70;;;18.20;99.90;;;;;;5042122;28;20211;-62
2023/09/19 02:19:42;;;;;;;2.77;2.30;;;18.20;99.90;;;;;;5041655;28;20630;-64
2023/09/19 02:22:10;;;;;;;4.03;2.33;;;18.20;99.90;;;;;;5019248;28;20285;-63
2023/09/19 02:24:38;;;;;;;2.70;2.30;;;18.20;99.90;;;;;;5037592;28;20190;-63
2023/09/19 02:27:05;;;;;;;3.00;2.20;;;18.20;99.90;;;;;;5041674;28;20203;-65
2023/09/19 02:29:31;;;;;;;3.80;2.33;;;18.20;99.90;;;;;;5033212;28;20211;-64
2023/09/19 02:31:57;;;;;;;4.73;2.20;;;18.20;99.90;;;;;;5042452;28;20276;-64
2023/09/19 02:34:22;;;;;;;2.73;2.53;;;18.20;99.90;;;;;;5038094;28;20666;-63
2023/09/19 02:36:48;;;;;;;2.43;2.23;;;18.20;99.90;;;;;;5042016;28;20191;-63
2023/09/19 02:39:14;;;;;;;4.13;2.30;;;18.20;99.90;;;;;;5031712;28;20196;-63
2023/09/19 02:41:42;;;;;;;3.33;2.30;;;18.30;99.90;;;;;;5034947;28;20281;-63
2023/09/19 02:44:08;;;;;;;2.13;1.90;;;18.20;99.90;;;;;;5032175;28;20292;-63
2023/09/19 02:46:36;;;;;;;3.80;2.30;;;18.10;99.90;;;;;;5029404;28;21004;-61
2023/09/19 02:49:05;;;;;;;2.90;2.20;;;18.20;99.90;;;;;;5038074;28;20219;-61
2023/09/19 02:51:30;;;;;;;3.87;2.30;;;18.20;99.90;;;;;;5034766;28;20221;-61
2023/09/19 02:53:56;;;;;;;2.40;2.03;;;18.20;99.90;;;;;;5033476;28;20216;-61
2023/09/19 02:56:22;;;;;;;3.63;2.20;;;18.20;99.90;;;;;;5036677;28;20954;-61
2023/09/19 02:58:48;;;;;;;9.10;2.43;;;18.20;99.90;;;;;;5035861;28;20829;-61
2023/09/19 03:01:14;;;;;;;4.47;2.63;;;18.10;99.90;;;;;;5031100;28;20200;-62
2023/09/19 03:03:40;;;;;;;2.07;1.83;;;18.10;99.90;;;;;;5036885;28;20198;-62
2023/09/19 03:06:08;;;;;;;2.80;1.97;;;18.10;99.90;;;;;;5041991;28;20229;-61
2023/09/19 03:08:36;;;;;;;2.33;2.13;;;18.10;99.90;;;;;;5034001;28;20204;-61
2023/09/19 03:11:05;;;;;;;3.13;1.60;;;18.10;99.90;;;;;;5028285;28;20230;-61
2023/09/19 03:13:31;;;;;;;6.33;1.90;;;18.10;99.90;;;;;;5022493;28;20222;-61
2023/09/19 03:15:58;;;;;;;2.40;1.40;;;18.00;99.90;;;;;;5019091;28;20240;-61
2023/09/19 03:18:26;;;;;;;1.40;1.30;;;18.10;99.90;;;;;;5036876;28;20198;-61
2023/09/19 03:20:55;;;;;;;8.53;1.63;;;18.00;99.90;;;;;;5016046;28;20274;-60
2023/09/19 03:23:21;;;;;;;2.57;1.30;;;18.10;99.90;;;;;;5015126;28;20204;-61
2023/09/19 03:25:47;;;;;;;2.33;1.10;;;18.00;99.90;;;;;;5035993;28;20252;-61
2023/09/19 03:28:15;;;;;;;5.10;1.40;;;18.10;99.90;;;;;;5036023;28;20209;-61
2023/09/19 03:30:41;;;;;;;2.80;1.20;;;18.10;99.90;;;;;;5036748;28;20276;-61
2023/09/19 03:33:06;;;;;;;1.40;1.30;;;18.10;99.90;;;;;;5019801;28;20321;-63
2023/09/19 03:35:32;;;;;;;1.77;1.27;;;18.10;99.90;;;;;;5014561;28;20268;-63
2023/09/19 03:37:57;;;;;;;4.40;1.53;;;18.20;99.90;;;;;;5035851;28;20475;-63
2023/09/19 03:40:23;;;;;;;3.80;1.37;;;18.10;99.90;;;;;;5031745;28;20307;-63
2023/09/19 03:42:49;;;;;;;1.27;1.17;;;18.10;99.90;;;;;;5033957;28;20202;-63
2023/09/19 03:45:16;;;;;;;1.40;1.30;;;18.20;99.90;;;;;;5033232;28;20210;-61
2023/09/19 03:47:41;;;;;;;1.47;1.30;;;18.00;99.90;;;;;;5035878;28;20290;-62
2023/09/19 03:50:08;;;;;;;1.50;1.40;;;18.00;99.90;;;;;;5020453;28;20203;-58
2023/09/19 03:52:34;;;;;;;1.47;1.23;;;18.10;99.90;;;;;;5034325;28;20221;-57
2023/09/19 03:55:01;;;;;;;1.60;1.10;;;18.10;99.90;;;;;;5038324;28;20197;-60
2023/09/19 03:57:26;;;;;;;2.80;1.60;;;18.00;99.90;;;;;;5027625;28;20199;-62
2023/09/19 03:59:53;;;;;;;3.17;1.50;;;18.00;99.90;;;;;;5033134;28;20202;-64
2023/09/19 04:02:22;;;;;;;3.17;1.43;;;18.00;99.90;;;;;;5037960;28;20572;-64
2023/09/19 04:04:51;;;;;;;1.20;1.10;;;18.00;99.90;;;;;;5034176;28;20273;-64
2023/09/19 04:07:19;;;;;;;1.90;1.40;;;18.00;99.90;;;;;;5039720;28;20244;-64
2023/09/19 04:09:45;;;;;;;1.63;1.53;;;18.00;99.90;;;;;;5032741;28;20201;-64
2023/09/19 04:12:11;;;;;;;1.13;1.13;;;18.00;99.90;;;;;;5029237;28;20196;-63
2023/09/19 04:14:37;;;;;;;1.60;1.50;;;18.00;99.90;;;;;;5017070;28;20214;-59
2023/09/19 04:17:03;;;;;;;2.07;1.23;;;18.00;99.90;;;;;;5038011;28;20214;-62
2023/09/19 04:19:28;;;;;;;2.50;1.10;;;17.80;99.90;;;;;;5033059;28;20653;-63
2023/09/19 04:21:54;;;;;;;2.30;1.70;;;17.80;99.90;;;;;;5036690;28;20264;-62
2023/09/19 04:24:19;;;;;;;1.50;1.27;;;17.70;99.90;;;;;;5035846;28;20206;-64
2023/09/19 04:26:45;;;;;;;3.73;1.50;;;17.70;99.90;;;;;;5041484;28;20202;-64
2023/09/19 04:29:13;;;;;;;3.10;1.47;;;17.70;99.90;;;;;;5031891;28;20226;-63
2023/09/19 04:31:40;;;;;;;1.93;1.60;;;17.70;99.90;;;;;;5017299;28;20802;-63
2023/09/19 04:34:07;;;;;;;2.70;1.13;;;17.60;99.90;;;;;;5034705;28;20219;-63
2023/09/19 04:36:33;;;;;;;2.53;1.67;;;17.60;99.90;;;;;;5035263;28;20210;-64
2023/09/19 04:38:58;;;;;;;2.47;1.60;;;17.60;99.90;;;;;;5035779;28;20222;-63
2023/09/19 04:41:24;;;;;;;5.73;2.00;;;17.60;99.90;;;;;;5016923;28;20280;-64
2023/09/19 04:43:50;;;;;;;1.43;1.33;;;17.70;99.90;;;;;;5027457;28;20678;-63
2023/09/19 04:46:17;;;;;;;2.00;1.30;;;17.60;99.90;;;;;;5034027;28;20195;-64
2023/09/19 04:48:43;;;;;;;3.00;1.70;;;17.70;99.90;;;;;;5032013;28;20377;-63
2023/09/19 04:51:08;;;;;;;2.23;1.57;;;17.60;99.90;;;;;;5030370;28;20226;-64
2023/09/19 04:53:34;;;;;;;2.20;1.10;;;17.60;99.90;;;;;;5026182;28;20215;-63
2023/09/19 04:55:59;;;;;;;2.20;1.80;;;17.50;99.90;;;;;;5024154;28;20231;-63
2023/09/19 04:58:25;;;;;;;2.30;1.77;;;17.50;99.90;;;;;;5024185;28;20203;-64
2023/09/19 05:00:51;;;;;;;1.63;1.53;;;17.50;99.90;;;;;;5021264;28;20180;-62
2023/09/19 05:03:17;;;;;;;3.43;1.70;;;17.40;99.90;;;;;;5034559;28;20197;-64
2023/09/19 05:05:43;;;;;;;4.63;1.70;;;17.40;99.90;;;;;;5028431;28;20180;-65
2023/09/19 05:08:09;;;;;;;3.47;1.63;;;17.40;99.90;;;;;;5029766;28;20194;-65
2023/09/19 05:10:37;;;;;;;3.20;1.60;;;17.30;99.90;;;;;;5041007;28;20172;-64
2023/09/19 05:13:04;;;;;;;3.23;1.40;;;17.40;99.90;;;;;;5023653;28;20211;-66
2023/09/19 05:15:30;;;;;;;2.60;1.50;;;17.40;99.90;;;;;;5032725;28;20701;-61
2023/09/19 05:17:56;;;;;;;2.93;1.90;;;17.40;99.90;;;;;;5025181;28;20195;-62
2023/09/19 05:20:29;;;;;;;3.27;1.27;;;17.30;99.90;;;;;;5026331;28;20201;-59
2023/09/19 05:23:12;;;;;;;2.33;1.73;;;17.30;99.90;;;;;;5026556;28;20915;-58
2023/09/19 05:25:39;;;;;;;1.80;1.40;;;17.30;99.90;;;;;;5036953;28;20242;-59
2023/09/19 05:28:07;;;;;;;2.40;1.20;;;17.40;99.90;;;;;;5015466;28;20205;-59
2023/09/19 05:30:33;;;;;;;3.33;1.70;;;17.40;99.90;;;;;;5044780;28;20197;-58
2023/09/19 05:32:58;;;;;;;1.80;1.50;;;17.40;99.90;;;;;;5021653;28;20215;-61
2023/09/19 05:35:25;;;;;;;2.20;1.50;;;17.30;99.90;;;;;;5034965;28;20196;-61
2023/09/19 05:37:51;;;;;;;4.17;1.80;;;17.30;99.90;;;;;;5028747;28;20310;-61
2023/09/19 05:40:17;;;;;;;4.43;1.53;;;17.20;99.90;;;;;;5046675;28;20509;-62
2023/09/19 05:42:43;;;;;;;3.00;1.70;;;17.30;99.90;;;;;;5026491;28;20314;-61
2023/09/19 05:45:12;;;;;;;2.20;1.63;;;17.30;99.90;;;;;;5039997;28;20692;-63
2023/09/19 05:47:38;;;;;;;4.27;1.60;;;17.30;99.90;;;;;;5024648;28;20238;-61
2023/09/19 05:50:05;;;;;;;2.67;1.83;;;17.30;99.90;;;;;;5041094;28;20195;-60
2023/09/19 05:52:30;;;;;;;2.70;2.23;;;17.30;99.90;;;;;;5023991;28;20211;-65
2023/09/19 05:54:56;;;;;;;1.90;1.80;;;17.40;99.90;;;;;;5022891;28;20562;-61
2023/09/19 05:57:22;;;;;;;3.40;1.97;;;17.30;99.90;;;;;;5024403;28;20223;-63
2023/09/19 05:59:50;;;;;;;2.93;1.80;;;17.40;99.90;;;;;;5043454;28;20191;-61
2023/09/19 06:02:16;;;;;;;4.10;2.07;;;17.40;99.90;;;;;;5032914;28;20259;-60
2023/09/19 06:04:41;;;;;;;2.60;2.40;;;17.30;99.90;;;;;;5037691;28;20200;-61
2023/09/19 06:07:07;;;;;;;3.03;1.53;;;17.30;99.90;;;;;;5021382;28;20253;-62
2023/09/19 06:09:33;;;;;;;4.43;1.60;;;17.30;99.90;;;;;;5041896;28;20208;-62
2023/09/19 06:12:03;;;;;;;3.17;2.40;;;17.30;99.90;;;;;;5037353;28;20244;-64
2023/09/19 06:14:28;;;;;;;4.00;2.00;;;17.30;99.90;;;;;;5040776;28;20316;-62
2023/09/19 06:16:54;;;;;;;3.90;1.57;;;17.30;99.90;;;;;;5042947;28;20276;-64
2023/09/19 06:19:22;;;;;;;3.07;1.53;;;17.30;99.90;;;;;;5030281;28;20199;-64
2023/09/19 06:21:48;;;;;;;3.73;1.53;;;17.40;99.90;;;;;;5037441;28;20204;-62
2023/09/19 06:24:13;;;;;;;3.10;2.10;;;17.40;99.90;;;;;;5037277;28;20565;-59
2023/09/19 06:26:39;;;;;;;2.47;1.80;;;17.40;99.90;;;;;;5038649;28;20238;-61
2023/09/19 06:29:07;;;;;;;2.47;1.83;;;17.40;99.90;;;;;;5037265;28;20199;-60
2023/09/19 06:31:33;;;;;;;2.13;1.73;;;17.50;99.90;;;;;;5018768;28;21007;-58
2023/09/19 06:33:58;;;;;;;2.23;1.40;;;17.50;99.90;;;;;;5038926;28;20206;-63
2023/09/19 06:36:24;;;;;;;4.50;1.50;;;17.50;99.90;;;;;;5036258;28;20260;-63
2023/09/19 06:38:51;;;;;;;2.10;1.90;;;17.50;99.90;;;;;;5012502;28;20217;-65
2023/09/19 06:41:17;;;;;;;2.27;2.07;;;17.50;99.90;;;;;;5038370;28;20218;-65
2023/09/19 06:43:43;;;;;;;2.50;1.70;;;17.60;99.90;;;;;;5028799;28;20195;-63
2023/09/19 06:46:09;;;;;;;4.23;1.83;;;17.70;99.90;;;;;;5037330;28;20202;-61
2023/09/19 06:48:35;;;;;;;3.20;2.60;;;17.70;99.90;;;;;;5036473;28;20569;-61
2023/09/19 06:51:01;;;;;;;3.17;1.90;;;17.90;99.90;;;;;;5041578;28;20213;-61
2023/09/19 06:53:27;;;;;;;3.50;1.57;;;18.00;99.90;;;;;;5039001;28;20305;-60
2023/09/19 06:55:57;;;;;;;2.63;1.80;;;18.10;99.90;;;;;;5040102;28;20665;-64
2023/09/19 06:58:22;;;;;;;2.17;2.07;;;18.10;99.90;;;;;;5015618;28;20239;-65
2023/09/19 07:00:49;;;;;;;2.63;1.70;;;18.20;99.90;;;;;;5016471;28;20277;-65
2023/09/19 07:03:16;;;;;;;4.77;2.20;;;18.20;99.90;;;;;;5032263;28;20204;-64
2023/09/19 07:05:42;;;;;;;1.83;1.73;;;18.40;99.90;;;;;;5036041;28;20218;-63
2023/09/19 07:08:12;;;;;;;3.13;2.40;;;18.40;99.90;;;;;;5034842;28;20561;-66
2023/09/19 07:10:40;;;;;;;2.43;2.23;;;18.40;99.90;;;;;;5036422;28;20213;-65
2023/09/19 07:13:10;;;;;;;4.40;2.03;;;18.30;99.90;;;;;;5037090;28;20215;-64
2023/09/19 07:15:39;;;;;;;3.20;1.90;;;18.50;99.90;;;;;;5036195;28;20204;-64
2023/09/19 07:18:05;;;;;;;9.50;2.37;;;18.40;99.90;;;;;;5036176;28;20191;-65
2023/09/19 07:20:32;;;;;;;2.23;2.00;;;18.40;99.90;;;;;;5040387;28;21103;-61
2023/09/19 07:23:01;;;;;;;3.00;1.77;;;18.70;99.90;;;;;;5033697;28;20240;-65
2023/09/19 07:25:30;;;;;;;2.10;1.70;;;18.70;99.90;;;;;;5033940;28;20223;-67
2023/09/19 07:27:59;;;;;;;6.00;3.17;;;18.60;99.90;;;;;;5020998;28;20286;-66
2023/09/19 07:30:26;;;;;;;7.47;1.90;;;18.40;99.90;;;;;;5037260;28;20221;-61
2023/09/19 07:32:52;;;;;;;3.63;2.23;;;18.20;99.90;;;;;;5037680;28;20817;-61
2023/09/19 07:35:19;;;;;;;9.77;2.97;;;18.10;99.90;;;;;;5033094;28;20212;-62
2023/09/19 07:37:49;;;;;;;3.40;2.53;;;18.10;99.90;;;;;;5033281;28;20675;-61
2023/09/19 07:40:16;;;;;;;7.50;2.73;;;18.00;99.90;;;;;;5034474;28;20226;-61
2023/09/19 07:42:41;;;;;;;3.20;1.80;;;18.10;99.90;;;;;;5020404;28;20238;-61
2023/09/19 07:45:08;;;;;;;4.13;2.47;;;18.20;99.90;;;;;;5033676;28;20246;-61
2023/09/19 07:47:34;;;;;;;5.07;2.93;;;18.30;99.90;;;;;;5039931;28;20207;-61
2023/09/19 07:50:02;;;;;;;4.47;2.47;;;18.30;99.90;;;;;;5036462;28;20305;-62
2023/09/19 07:52:28;;;;;;;6.27;2.97;;;18.40;99.90;;;;;;5032303;28;20695;-61
2023/09/19 07:54:54;;;;;;;4.97;2.40;;;18.40;99.90;;;;;;5030614;28;20297;-61
2023/09/19 07:57:20;;;;;;;3.77;2.33;;;18.50;99.90;;;;;;5034780;28;20577;-61
2023/09/19 07:59:46;;;;;;;4.77;2.93;;;18.60;99.90;;;;;;5035388;28;20665;-61
2023/09/19 08:02:16;;;;;;;4.00;2.40;;;18.60;99.90;;;;;;5032292;28;20239;-62
2023/09/19 08:04:46;;;;;;;3.53;2.23;;;18.50;99.90;;;;;;5034624;28;20195;-62
2023/09/19 08:07:13;;;;;;;8.57;4.37;;;18.60;99.90;;;;;;5016716;28;20282;-62
2023/09/19 08:09:38;;;;;;;9.03;3.97;;;18.40;99.90;;;;;;5029262;28;20205;-62
2023/09/19 08:12:05;;;;;;;6.27;2.53;;;17.70;99.90;;;;;;5029414;28;20935;-61
2023/09/19 08:14:30;;;;;;;4.50;2.60;;;17.20;99.90;;;;;;5037439;28;20234;-60
2023/09/19 08:16:58;;;;;;;2.50;2.30;;;16.70;99.90;;;;;;5035343;28;20222;-63
2023/09/19 08:19:28;;;;;;;8.33;3.43;;;16.30;99.90;;;;;;5029935;28;20234;-63
2023/09/19 08:21:58;;;;;;;11.87;3.10;;;16.10;99.90;;;;;;5038566;28;20252;-64
2023/09/19 08:24:25;;;;;;;3.97;2.97;;;16.10;99.90;;;;;;5039010;28;20500;-64
2023/09/19 08:26:51;;;;;;;7.07;3.60;;;16.10;99.90;;;;;;5021664;28;20220;-63
2023/09/19 08:29:17;;;;;;;5.90;2.90;;;16.10;99.90;;;;;;5033927;28;20198;-61
2023/09/19 08:31:43;;;;;;;6.13;3.10;;;16.10;99.90;;;;;;5032242;28;20355;-63
2023/09/19 08:34:08;;;;;;;9.20;3.53;;;16.10;99.90;;;;;;5028177;28;20705;-65
2023/09/19 08:36:35;;;;;;;6.17;3.43;;;16.20;99.90;;;;;;5037472;28;20218;-61
2023/09/19 08:39:00;;;;;;;4.53;3.10;;;16.30;99.90;;;;;;5038678;28;20198;-61
2023/09/19 08:41:26;;;;;;;5.60;3.00;;;16.50;99.90;;;;;;5034393;28;20195;-65
2023/09/19 08:43:52;;;;;;;3.27;2.97;;;16.50;99.90;;;;;;5030969;28;20269;-66
2023/09/19 08:46:19;;;;;;;4.20;2.90;;;16.60;99.90;;;;;;5035716;28;20202;-66
2023/09/19 08:48:51;;;;;;;4.50;2.97;;;16.90;99.90;;;;;;5034405;28;20295;-62
2023/09/19 08:51:46;;;;;;;6.30;3.07;;;17.10;99.90;;;;;;5014149;28;20254;-65
2023/09/19 08:54:26;;;;;;;4.13;2.73;;;17.00;99.90;;;;;;5041288;28;20264;-66
2023/09/19 08:56:53;;;;;;;4.03;3.13;;;17.00;99.90;;;;;;5038513;28;20199;-60
2023/09/19 08:59:24;;;;;;;5.80;2.90;;;16.90;99.90;;;;;;5037313;28;20314;-61
2023/09/19 09:01:53;;;;;;;7.53;3.00;;;17.00;99.90;;;;;;5020552;28;20206;-61
2023/09/19 09:04:20;;;;;;;7.40;2.87;;;17.00;99.90;;;;;;5017656;28;20210;-61
2023/09/19 09:06:48;;;;;;;7.47;3.10;;;17.10;99.90;;;;;;5034300;28;20720;-61
2023/09/19 09:09:15;;;;;;;5.10;2.77;;;17.30;99.90;;;;;;5040178;28;20194;-60
2023/09/19 09:11:40;;;;;;;3.30;2.50;;;17.40;99.90;;;;;;5041890;28;20184;-60
2023/09/19 09:14:07;;;;;;;8.20;3.10;;;17.50;99.90;;;;;;5028551;28;20601;-65
2023/09/19 09:16:33;;;;;;;3.00;2.40;;;17.60;99.90;;;;;;5032452;28;20191;-64
2023/09/19 09:18:58;;;;;;;5.63;2.73;;;17.90;99.90;;;;;;5036508;28;20198;-66
2023/09/19 09:21:28;;;;;;;5.47;2.50;;;18.10;99.90;;;;;;5038593;28;20205;-64
2023/09/19 09:23:54;;;;;;;4.27;2.50;;;18.20;99.90;;;;;;5038445;28;20199;-64
2023/09/19 09:26:46;;;;;;;9.20;3.07;;;18.30;99.90;;;;;;5017672;28;20883;-64
2023/09/19 09:29:13;;;;;;;4.73;3.37;;;18.40;99.90;;;;;;5044741;28;20644;-65
2023/09/19 09:31:39;;;;;;;4.83;2.77;;;18.30;99.90;;;;;;5039331;28;20222;-65
2023/09/19 09:34:04;;;;;;;4.83;2.40;;;18.20;99.90;;;;;;5040418;28;20245;-65
2023/09/19 09:36:38;;;;;;;6.20;3.03;;;18.40;99.90;;;;;;5015811;28;20224;-66
2023/09/19 09:41:59;;;;;;;6.00;2.63;;;18.40;99.90;;;;;;5028995;28;20201;-63
2023/09/19 09:44:24;;;;;;;6.47;3.00;;;18.30;99.90;;;;;;5036829;28;20252;-69
2023/09/19 09:52:07;;;;;;;6.23;2.90;;;18.10;99.90;;;;;;5036381;28;20243;-67
2023/09/19 09:54:36;;;;;;;6.57;3.03;;;18.10;99.90;;;;;;5040036;28;20266;-65
2023/09/19 09:57:13;;;;;;;9.57;3.67;;;18.20;99.90;;;;;;5038137;28;20712;-67
2023/09/19 09:59:50;;;;;;;7.27;3.10;;;18.00;99.90;;;;;;5036896;28;20194;-68
2023/09/19 10:02:25;;;;;;;5.13;2.60;;;18.00;99.90;;;;;;5044459;28;20248;-67
2023/09/19 10:04:55;;;;;;;5.37;3.03;;;18.20;99.90;;;;;;5025657;28;20198;-66
2023/09/19 10:07:32;;;;;;;5.50;3.17;;;18.40;99.90;;;;;;5017283;28;20203;-62
2023/09/19 10:10:09;;;;;;;7.87;2.93;;;18.70;99.90;;;;;;5021124;28;20619;-62
2023/09/19 10:12:40;;;;;;;5.87;3.10;;;19.00;99.90;;;;;;5034512;28;20203;-61
2023/09/19 10:15:07;;;;;;;6.23;2.53;;;19.10;99.90;;;;;;5013034;28;20308;-61
2023/09/19 10:17:36;;;;;;;7.00;2.53;;;19.00;99.90;;;;;;5038973;28;20198;-61
2023/09/19 10:20:09;;;;;;;4.03;2.60;;;18.90;99.90;;;;;;5036264;28;20200;-65
2023/09/19 10:22:36;;;;;;;5.33;2.80;;;18.90;99.90;;;;;;5032205;28;20197;-63
2023/09/19 10:25:06;;;;;;;9.20;3.17;;;19.10;99.90;;;;;;5032507;28;20280;-63
2023/09/19 10:27:37;;;;;;;5.30;2.10;;;19.30;99.90;;;;;;5040706;28;20198;-63
2023/09/19 10:30:07;;;;;;;3.73;2.70;;;19.40;99.90;;;;;;5020070;28;20568;-63
2023/09/19 10:32:35;;;;;;;5.47;2.70;;;19.40;99.90;;;;;;5022869;28;20870;-67
2023/09/19 10:35:04;;;;;;;3.70;2.53;;;19.50;99.20;;;;;;5037260;28;20585;-64
2023/09/19 10:37:34;;;;;;;3.43;2.07;;;19.50;99.90;;;;;;5036211;28;20267;-66
2023/09/19 10:39:59;;;;;;;4.90;2.50;;;19.60;99.00;;;;;;5040991;28;20214;-68
2023/09/19 10:42:31;;;;;;;5.50;2.30;;;19.60;98.40;;;;;;5031331;28;20195;-65
2023/09/19 10:45:00;;;;;;;6.50;2.87;;;19.50;97.40;;;;;;5024876;28;20200;-65
2023/09/19 10:47:25;;;;;;;6.20;2.63;;;19.30;97.70;;;;;;5035737;28;20208;-63
2023/09/19 10:49:51;;;;;;;4.57;3.03;;;19.30;98.50;;;;;;5017342;28;20215;-61
2023/09/19 10:52:23;;;;;;;4.60;2.13;;;19.50;97.40;;;;;;5034416;28;20212;-61
2023/09/19 10:54:54;;;;;;;3.77;2.10;;;19.90;95.50;;;;;;5037102;28;20266;-61
2023/09/19 10:57:23;;;;;;;5.67;2.50;;;20.10;94.80;;;;;;5038844;28;20205;-60
2023/09/19 11:00:27;;;;;;;8.40;2.37;;;20.10;94.90;;;;;;5032914;28;20722;-63
2023/09/19 11:03:30;;;;;;;4.77;2.67;;;20.30;94.20;;;;;;5038273;28;20245;-62
2023/09/19 11:06:09;;;;;;;3.97;2.20;;;20.30;94.20;;;;;;5022051;28;21231;-67
2023/09/19 11:11:55;;;;;;;7.07;2.23;;;20.20;94.30;;;;;;5035768;28;20196;-66
2023/09/19 11:14:23;;;;;;;6.63;2.67;;;20.10;94.60;;;;;;5033034;28;20229;-64
2023/09/19 11:17:11;;;;;;;9.33;3.27;;;20.30;95.00;;;;;;5031368;28;20189;-65
2023/09/19 11:22:57;;;;;;;4.67;2.63;;;20.60;92.70;;;;;;5031040;28;20197;-65
2023/09/19 11:25:29;;;;;;;3.67;1.97;;;20.70;92.60;;;;;;5038907;28;20285;-64
2023/09/19 11:28:14;;;;;;;3.47;2.10;;;20.80;91.80;;;;;;5025619;28;20199;-62
2023/09/19 11:30:43;;;;;;;6.13;1.97;;;20.70;92.80;;;;;;5015460;28;20202;-62
2023/09/19 11:33:23;;;;;;;4.23;1.87;;;20.60;92.40;;;;;;5016921;28;20199;-64
2023/09/19 11:36:09;;;;;;;6.17;3.00;;;20.50;92.50;;;;;;5035631;28;20239;-62
2023/09/19 11:38:48;;;;;;;6.37;1.83;;;20.40;92.20;;;;;;5034305;28;20208;-61
2023/09/19 11:41:20;;;;;;;4.67;1.90;;;20.60;92.30;;;;;;5031886;28;20277;-61
2023/09/19 11:43:46;;;;;;;3.67;1.90;;;20.90;90.70;;;;;;5033494;28;20260;-61
2023/09/19 11:46:16;;;;;;;4.93;1.83;;;20.90;91.30;;;;;;5035846;28;20216;-61
2023/09/19 11:48:44;;;;;;;4.70;2.10;;;20.90;90.30;;;;;;5034452;28;20212;-61
2023/09/19 11:51:26;;;;;;;4.40;2.00;;;21.00;90.70;;;;;;5033523;28;20317;-68
2023/09/19 11:53:59;;;;;;;4.77;2.07;;;21.00;90.80;;;;;;5013263;28;20684;-62
2023/09/19 11:56:27;;;;;;;5.77;1.77;;;21.10;90.10;;;;;;5034674;28;20350;-67
2023/09/19 11:58:55;;;;;;;4.13;1.97;;;21.10;90.20;;;;;;5030732;28;20199;-68
2023/09/19 12:01:32;;;;;;;1.60;1.50;;;21.10;90.40;;;;;;5016134;28;20679;-64
2023/09/19 12:03:59;;;;;;;4.23;1.97;;;21.20;91.00;;;;;;5034384;28;20649;-64
2023/09/19 12:06:26;;;;;;;5.70;2.13;;;21.00;90.20;;;;;;5014954;28;20974;-65
2023/09/19 12:08:59;;;;;;;5.63;1.50;;;20.80;90.90;;;;;;5038347;28;20202;-65
2023/09/19 12:11:33;;;;;;;6.53;2.53;;;20.90;90.40;;;;;;5021771;28;20318;-65
2023/09/19 12:14:00;;;;;;;4.10;2.00;;;20.90;91.80;;;;;;5013053;28;20585;-65
2023/09/19 12:16:30;;;;;;;3.80;1.67;;;21.10;87.60;;;;;;5039558;28;20219;-66
2023/09/19 12:18:57;;;;;;;1.97;1.30;;;21.20;86.70;;;;;;5040146;28;20694;-63
2023/09/19 12:21:24;;;;;;;4.23;1.77;;;21.40;85.70;;;;;;5037690;28;20205;-62
2023/09/19 12:24:04;;;;;;;5.03;2.30;;;21.50;85.40;;;;;;5037665;28;20292;-61
2023/09/19 12:26:37;;;;;;;4.33;1.83;;;21.60;83.60;;;;;;5039280;28;20576;-67
2023/09/19 12:29:04;;;;;;;3.33;1.87;;;21.60;84.10;;;;;;5039796;28;20220;-73
2023/09/19 12:31:35;;;;;;;6.03;1.77;;;21.60;86.20;;;;;;5022191;28;20214;-61
2023/09/19 12:34:01;;;;;;;2.70;1.70;;;21.50;86.70;;;;;;5046247;28;20213;-61
2023/09/19 12:36:30;;;;;;;5.87;2.00;;;21.60;84.90;;;;;;5035591;28;20434;-62
2023/09/19 12:38:58;;;;;;;1.60;1.37;;;21.30;84.00;;;;;;5042942;28;20188;-62
2023/09/19 12:41:25;;;;;;;5.83;1.50;;;21.40;83.40;;;;;;5039582;28;20735;-61
2023/09/19 12:43:54;;;;;;;3.63;1.70;;;21.40;83.80;;;;;;5037386;28;20701;-65
2023/09/19 12:46:26;;;;;;;3.77;2.13;;;21.70;83.80;;;;;;5023566;28;20563;-62
2023/09/19 12:49:19;;;;;;;7.70;1.90;;;21.70;83.50;;;;;;5047976;28;20248;-62
2023/09/19 12:51:49;;;;;;;3.13;1.80;;;21.40;86.20;;;;;;5037890;28;20217;-62
2023/09/19 12:54:15;;;;;;;4.17;2.17;;;21.60;85.80;;;;;;5039004;28;20207;-62
2023/09/19 12:56:47;;;;;;;3.73;1.80;;;21.60;84.40;;;;;;5020914;28;20206;-62
2023/09/19 12:59:13;;;;;;;2.93;1.20;;;21.70;82.00;;;;;;5020749;28;20205;-62
2023/09/19 13:01:48;;;;;;;3.20;1.67;;;21.20;82.70;;;;;;5037359;28;20718;-62
2023/09/19 13:04:28;;;;;;;3.23;1.43;;;21.00;85.00;;;;;;5042972;28;20193;-61
2023/09/19 13:06:54;;;;;;;4.47;1.80;;;21.20;83.10;;;;;;5040123;28;21023;-62
2023/09/19 13:09:22;;;;;;;3.97;1.70;;;21.10;83.50;;;;;;5037423;28;20198;-62
2023/09/19 13:11:49;;;;;;;6.17;2.07;;;20.80;85.70;;;;;;5034572;28;20201;-61